Monday, January 21, 2019, 5:08 PM EST
Back to Local

KFME, Fort Meade / Tipton

Location: Laurel, MD, United States Lat: 39.083
Local Time: 5:08 PM EST (22:08 GMT) Lon: -76.767
Time Zone: US/Eastern Elev: 150 ft

Show me the last for .
Show Coded

Time T Td Feel RH Dir Speed Gust Alt SLP Vis Weather Sky Remarks
2019-01-21 16:42 21 0 1 37 300° 20 38 30.42 - 10 CLR None
2019-01-21 16:21 21 0 4 37 300° 21 28 30.41 - 10 CLR None
2019-01-21 16:03 21 -2 4 34 300° 16 26 30.40 - 10 CLR None
2019-01-21 15:42 21 -2 3 34 290° 20 29 30.39 - 10 CLR None
2019-01-21 15:21 21 -4 3 32 290° 20 30 30.37 - 10 CLR None
2019-01-21 15:03 21 -2 4 34 320° 14 26 30.37 - 10 CLR None
2019-01-21 14:42 21 0 4 37 310° 15 26 30.36 - 10 CLR None
2019-01-21 14:21 21 -2 4 34 300° 17 28 30.35 - 10 CLR None
2019-01-21 14:03 21 0 4 37 300° 20 28 30.35 - 10 CLR None
2019-01-21 13:42 21 0 3 37 310° 12 31 30.34 - 10 CLR None
2019-01-21 13:21 21 0 3 37 310° 18 29 30.34 - 10 CLR None
2019-01-21 13:03 21 0 4 37 300° 16 24 30.34 - 10 CLR None
2019-01-21 12:42 21 -2 3 34 300° 22 30 30.33 - 10 CLR None
2019-01-21 12:21 21 -2 2 34 290° 21 32 30.33 - 10 CLR None
2019-01-21 12:03 19 -2 1 37 300° 17 28 30.32 - 10 CLR None
2019-01-21 11:42 19 -4 1 34 290° 18 30 30.33 - 10 CLR None
2019-01-21 11:21 19 -4 0 34 300° 20 31 30.33 - 10 CLR None
2019-01-21 11:03 19 -4 0 34 310° 22 31 30.33 - 10 CLR None
2019-01-21 10:42 18 -4 -2 37 310° 17 31 30.32 - 10 CLR None
2019-01-21 10:21 18 -4 -1 37 300° 13 26 30.31 - 10 CLR None
2019-01-21 10:03 18 -2 -3 40 300° 16 32 30.30 - 10 CLR None
2019-01-21 09:42 16 -4 -5 40 300° 18 32 30.30 - 10 CLR None
2019-01-21 09:21 14 -4 -8 43 310° 20 36 30.29 - 10 CLR None
2019-01-21 09:03 14 -2 -7 47 320° 21 31 30.29 - 10 CLR None
2019-01-21 08:42 14 -4 -7 43 300° 22 30 30.28 - 10 CLR None
2019-01-21 08:21 14 -2 -7 47 310° 10 29 30.27 - 10 CLR None
2019-01-21 08:03 12 -2 -9 51 310° 18 30 30.25 - 10 CLR None
2019-01-21 07:42 12 0 -9 56 280° 15 28 30.24 - 10 CLR None
2019-01-21 07:21 12 0 -9 56 290° 16 30 30.22 - 10 SCT049 None
2019-01-21 07:03 12 0 -8 56 290° 14 25 30.22 - 10 SCT046 SCT049 None
2019-01-21 06:42 12 0 -6 56 290° 14 20 30.21 - 10 CLR None
2019-01-21 06:21 12 -2 -6 51 290° 15 20 30.19 - 10 CLR None
2019-01-21 06:03 12 0 -8 56 270° 18 25 30.19 - 10 CLR None
2019-01-21 05:42 14 -2 -5 47 300° 15 25 30.19 - 10 CLR None
2019-01-21 05:21 12 -2 -7 51 300° 15 22 30.18 - 10 CLR None
2019-01-21 05:03 14 -2 -5 47 280° 15 25 30.16 - 10 CLR None
2019-01-21 04:42 14 -4 -5 43 290° 18 25 30.16 - 10 CLR None
2019-01-21 04:21 14 -4 -5 43 290° 12 23 30.15 - 10 CLR None
2019-01-21 04:03 14 -4 -7 43 300° 22 31 30.15 - 10 CLR None
2019-01-21 03:42 14 -4 -5 43 310° 17 25 30.14 - 10 CLR None
2019-01-21 03:21 14 -2 -6 47 290° 15 28 30.13 - 10 CLR None
2019-01-21 03:03 14 0 -5 51 290° 18 24 30.13 - 10 CLR None
2019-01-21 02:42 14 0 -5 51 300° 15 24 30.12 - 10 CLR None
2019-01-21 02:21 14 0 -6 51 300° 16 28 30.12 - 10 CLR None
2019-01-21 02:03 14 0 -5 51 300° 14 24 30.11 - 10 CLR None
2019-01-21 01:42 14 0 -6 51 290° 18 26 30.10 - 10 CLR None
2019-01-21 01:21 14 0 -6 51 290° 20 28 30.10 - 10 CLR None
2019-01-21 01:03 16 -2 -4 44 280° 18 28 30.08 - 10 CLR None
2019-01-21 00:42 16 0 -5 47 280° 13 31 30.08 - 10 CLR None
2019-01-21 00:21 16 0 -3 47 290° 18 26 30.06 - 10 CLR None
2019-01-21 00:03 18 0 -2 44 300° 15 29 30.06 - 10 CLR None
2019-01-20 23:42 18 1 -2 48 310° 16 30 30.05 - 10 CLR None
2019-01-20 23:21 18 1 -2 48 300° 14 31 30.03 - 10 CLR None
2019-01-20 23:03 19 1 0 44 290° 22 32 30.01 - 10 CLR None
2019-01-20 22:42 19 3 -1 48 290° 25 35 30.00 - 10 CLR None
2019-01-20 22:21 19 1 0 44 310° 17 33 29.99 - 10 CLR None
2019-01-20 22:03 21 3 3 44 310° 18 30 29.98 - 10 CLR None
2019-01-20 21:42 21 1 2 41 300° 20 32 29.96 - 10 CLR None
2019-01-20 21:21 21 3 2 44 310° 16 36 29.94 - 10 CLR None
2019-01-20 21:03 21 5 2 48 290° 23 35 29.93 - 10 CLR None
2019-01-20 20:42 23 5 6 45 320° 14 29 29.91 - 10 CLR None
2019-01-20 20:21 23 5 4 45 300° 26 37 29.90 - 10 CLR None
2019-01-20 20:03 23 5 5 45 300° 21 30 29.90 - 10 CLR None
2019-01-20 20:00 23 5 6 45 310° 14 29 29.89 - 10 CLR None
2019-01-20 19:42 23 5 5 45 300° 16 32 29.89 - 10 CLR None
2019-01-20 19:18 23 9 4 53 310° 17 36 29.88 - 10 CLR None
2019-01-20 19:00 25 10 10 53 310° 14 23 29.85 - 10 CLR None
2019-01-20 18:42 27 10 9 49 310° 22 36 29.84 - 10 CLR None
2019-01-20 18:21 27 12 10 53 310° 22 31 29.83 - 10 CLR None
2019-01-20 18:00 27 12 10 53 300° 13 30 29.81 - 10 CLR None
2019-01-20 17:42 27 14 11 58 300° 17 26 29.79 - 10 CLR None
2019-01-20 17:21 28 14 13 54 300° 15 30 29.77 - 10 CLR None

Support USWX by starting your Amazon purchase here.